createdAt,value
2023-02-03T00:00:50.618Z,-0.39
2023-02-03T00:03:20.604Z,-0.44
2023-02-03T00:05:50.778Z,-0.30
2023-02-03T00:08:23.101Z,-0.19
2023-02-03T00:10:51.670Z,-0.01
2023-02-03T00:13:22.941Z,-0.05
2023-02-03T00:15:52.947Z,-0.04
2023-02-03T00:18:23.044Z,0.01
2023-02-03T00:20:52.684Z,0.00
2023-02-03T00:23:22.411Z,0.05
2023-02-03T00:25:53.745Z,-0.14
2023-02-03T00:28:23.939Z,-0.22
2023-02-03T00:30:54.170Z,-0.14
2023-02-03T00:33:24.197Z,-0.07
2023-02-03T00:35:54.102Z,-0.12
2023-02-03T00:38:28.332Z,-0.17
2023-02-03T00:40:58.021Z,-0.10
2023-02-03T00:43:28.622Z,-0.12
2023-02-03T00:45:57.828Z,-0.16
2023-02-03T00:48:27.538Z,-0.07
2023-02-03T00:50:57.278Z,-0.11
2023-02-03T00:53:27.044Z,-0.16
2023-02-03T00:55:56.916Z,-0.19
2023-02-03T00:58:26.577Z,-0.17
2023-02-03T01:00:57.442Z,-0.13
2023-02-03T01:03:27.498Z,-0.09
2023-02-03T01:05:57.251Z,0.08
2023-02-03T01:08:27.235Z,0.05
2023-02-03T01:10:57.039Z,0.26
2023-02-03T01:13:26.795Z,0.15
2023-02-03T01:15:56.585Z,0.35
2023-02-03T01:18:26.478Z,0.46
2023-02-03T01:20:56.447Z,0.36
2023-02-03T01:23:26.286Z,0.34
2023-02-03T01:25:56.081Z,0.31
2023-02-03T01:28:25.903Z,0.31
2023-02-03T01:30:55.833Z,0.41
2023-02-03T01:33:25.684Z,0.48
2023-02-03T01:35:55.382Z,0.46
2023-02-03T01:38:25.301Z,0.58
2023-02-03T01:40:55.077Z,0.47
2023-02-03T01:43:42.216Z,0.41
2023-02-03T01:46:49.709Z,0.47
2023-02-03T01:49:32.019Z,0.50
2023-02-03T01:52:05.294Z,0.59
2023-02-03T01:54:46.812Z,0.48
2023-02-03T01:57:40.804Z,0.47
2023-02-03T02:00:12.266Z,0.71
2023-02-03T02:02:49.939Z,0.63
2023-02-03T02:05:29.827Z,0.73
2023-02-03T02:08:04.164Z,0.79
2023-02-03T02:10:34.027Z,0.60
2023-02-03T02:13:06.686Z,0.75
2023-02-03T02:16:20.795Z,0.76
2023-02-03T02:19:53.242Z,0.78
2023-02-03T02:23:24.198Z,0.73
2023-02-03T02:26:30.982Z,0.78
2023-02-03T02:30:01.595Z,0.85
2023-02-03T02:33:15.879Z,0.85
2023-02-03T02:36:25.815Z,0.81
2023-02-03T02:39:14.822Z,0.85
2023-02-03T02:42:20.863Z,0.78
2023-02-03T02:45:22.583Z,0.45
2023-02-03T02:48:30.050Z,0.39
2023-02-03T02:51:08.699Z,0.35
2023-02-03T02:53:48.687Z,0.48
2023-02-03T02:56:21.067Z,0.49
2023-02-03T02:58:55.261Z,0.55
2023-02-03T03:01:25.377Z,0.56
2023-02-03T03:03:57.369Z,0.50
2023-02-03T03:06:44.475Z,0.39
2023-02-03T03:09:47.997Z,0.62
2023-02-03T03:12:36.072Z,0.69
2023-02-03T03:15:20.990Z,0.67
2023-02-03T03:18:25.238Z,0.59
2023-02-03T03:21:06.079Z,0.71
2023-02-03T03:23:45.085Z,0.79
2023-02-03T03:26:28.821Z,0.56
2023-02-03T03:29:24.946Z,0.74
2023-02-03T03:31:55.371Z,0.58
2023-02-03T03:34:26.207Z,0.49
2023-02-03T03:37:22.778Z,0.57
2023-02-03T03:40:03.098Z,0.56
2023-02-03T03:43:02.466Z,0.57
2023-02-03T03:45:43.987Z,0.65
2023-02-03T03:48:34.399Z,0.58
2023-02-03T03:51:40.021Z,0.64
2023-02-03T03:54:20.591Z,0.69
2023-02-03T03:57:31.689Z,0.62
2023-02-03T04:00:09.865Z,0.63
2023-02-03T04:02:48.928Z,0.58
2023-02-03T04:05:21.236Z,0.88
2023-02-03T04:07:51.580Z,1.01
2023-02-03T04:10:39.291Z,0.91
2023-02-03T04:13:12.574Z,0.89
2023-02-03T04:15:42.796Z,0.94
2023-02-03T04:18:16.461Z,0.98
2023-02-03T04:20:46.463Z,1.02
2023-02-03T04:23:16.895Z,1.15
2023-02-03T04:25:46.912Z,1.10
2023-02-03T04:28:16.987Z,1.19
2023-02-03T04:30:47.152Z,1.22
2023-02-03T04:33:17.192Z,1.21
2023-02-03T04:35:47.255Z,1.49
2023-02-03T04:38:17.286Z,1.46
2023-02-03T04:40:47.553Z,1.53
2023-02-03T04:43:17.583Z,1.67
2023-02-03T04:45:47.680Z,1.72
2023-02-03T04:48:16.482Z,1.79
2023-02-03T04:50:44.539Z,1.83
2023-02-03T04:53:15.081Z,1.98
2023-02-03T04:55:50.497Z,1.98
2023-02-03T04:58:20.542Z,2.04
2023-02-03T05:00:50.620Z,2.18
2023-02-03T05:03:20.895Z,2.32
2023-02-03T05:05:51.283Z,2.29
2023-02-03T05:08:21.295Z,2.28
2023-02-03T05:10:51.321Z,2.33
2023-02-03T05:13:21.392Z,2.39
2023-02-03T05:15:51.446Z,2.47
2023-02-03T05:18:21.485Z,2.52
2023-02-03T05:20:51.606Z,2.67
2023-02-03T05:23:22.018Z,2.70
2023-02-03T05:25:52.111Z,2.94
2023-02-03T05:28:22.255Z,2.95
2023-02-03T05:30:52.609Z,3.01
2023-02-03T05:33:22.667Z,3.03
2023-02-03T05:35:52.673Z,3.04
2023-02-03T05:38:23.305Z,3.25
2023-02-03T05:41:12.381Z,3.21
2023-02-03T05:43:42.401Z,3.19
2023-02-03T05:46:12.409Z,3.33
2023-02-03T05:48:42.017Z,3.40
2023-02-03T05:51:11.832Z,3.57
2023-02-03T05:53:41.638Z,3.66
2023-02-03T05:56:11.466Z,3.60
2023-02-03T05:58:41.257Z,3.78
2023-02-03T06:01:11.948Z,3.78
2023-02-03T06:03:44.383Z,3.88
2023-02-03T06:06:14.333Z,3.86
2023-02-03T06:08:43.603Z,3.88
2023-02-03T06:11:13.617Z,3.90
2023-02-03T06:13:42.079Z,3.88
2023-02-03T06:16:11.849Z,3.86
2023-02-03T06:18:41.718Z,4.08
2023-02-03T06:21:11.719Z,4.21
2023-02-03T06:23:41.347Z,4.25
2023-02-03T06:26:11.490Z,4.31
2023-02-03T06:28:41.570Z,4.42
2023-02-03T06:31:10.951Z,4.38
2023-02-03T06:33:40.739Z,4.37
2023-02-03T06:36:11.013Z,4.45
2023-02-03T06:38:40.568Z,4.44
2023-02-03T06:41:10.477Z,4.60
2023-02-03T06:43:40.245Z,4.49
2023-02-03T06:46:10.033Z,4.58
2023-02-03T06:48:40.140Z,4.72
2023-02-03T06:51:09.899Z,4.70
2023-02-03T06:53:39.736Z,4.75
2023-02-03T06:56:09.415Z,4.81
2023-02-03T06:58:39.228Z,4.93
2023-02-03T07:01:11.890Z,5.00
2023-02-03T07:03:41.930Z,5.03
2023-02-03T07:06:11.922Z,5.08
2023-02-03T07:08:41.827Z,5.06
2023-02-03T07:11:12.012Z,4.95
2023-02-03T07:13:41.624Z,4.93
2023-02-03T07:16:11.384Z,5.01
2023-02-03T07:18:47.211Z,5.04
2023-02-03T07:21:19.063Z,5.12
2023-02-03T07:23:50.042Z,5.18
2023-02-03T07:26:19.804Z,5.23
2023-02-03T07:28:49.803Z,5.37
2023-02-03T07:31:19.750Z,5.42
2023-02-03T07:33:49.586Z,5.48
2023-02-03T07:36:19.375Z,5.34
2023-02-03T07:38:49.200Z,5.39
2023-02-03T07:41:19.014Z,5.47
2023-02-03T07:43:48.944Z,5.48
2023-02-03T07:46:18.716Z,5.38
2023-02-03T07:48:48.670Z,5.38
2023-02-03T07:51:18.390Z,5.32
2023-02-03T07:53:48.347Z,5.45
2023-02-03T07:56:18.215Z,5.38
2023-02-03T07:58:47.969Z,5.42
2023-02-03T08:01:17.802Z,5.41
2023-02-03T08:03:47.561Z,5.34
2023-02-03T08:06:17.701Z,5.33
2023-02-03T08:08:47.660Z,5.38
2023-02-03T08:11:17.403Z,5.42
2023-02-03T08:13:47.243Z,5.30
2023-02-03T08:16:17.551Z,5.41
2023-02-03T08:18:47.609Z,5.50
2023-02-03T08:21:17.070Z,5.48
2023-02-03T08:23:47.028Z,5.48
2023-02-03T08:26:17.246Z,5.57
2023-02-03T08:28:50.328Z,5.60
2023-02-03T08:31:20.711Z,5.71
2023-02-03T08:33:48.808Z,5.63
2023-02-03T08:36:20.160Z,5.57
2023-02-03T08:38:48.734Z,5.56
2023-02-03T08:41:18.561Z,5.52
2023-02-03T08:43:47.922Z,5.61
2023-02-03T08:46:16.379Z,5.68
2023-02-03T08:48:44.969Z,5.76
2023-02-03T08:51:17.427Z,5.77
2023-02-03T08:53:46.567Z,5.76
2023-02-03T08:56:16.300Z,5.77
2023-02-03T08:58:46.117Z,5.66
2023-02-03T09:01:16.394Z,5.81
2023-02-03T09:03:46.566Z,5.72
2023-02-03T09:06:16.827Z,5.81
2023-02-03T09:08:46.991Z,5.88
2023-02-03T09:11:19.091Z,5.87
2023-02-03T09:13:50.145Z,5.84
2023-02-03T09:16:21.770Z,5.79
2023-02-03T09:18:51.997Z,5.84
2023-02-03T09:21:33.647Z,5.75
2023-02-03T09:24:07.631Z,5.71
2023-02-03T09:26:35.499Z,5.77
2023-02-03T09:29:04.585Z,5.75
2023-02-03T09:31:32.641Z,5.89
2023-02-03T09:34:01.145Z,5.91
2023-02-03T09:36:29.688Z,5.81
2023-02-03T09:38:58.508Z,5.99
2023-02-03T09:41:56.925Z,6.00
2023-02-03T09:44:37.618Z,6.03
2023-02-03T09:47:28.467Z,5.96
2023-02-03T09:50:26.693Z,6.06
2023-02-03T09:53:05.442Z,6.02
2023-02-03T09:55:47.582Z,5.93
2023-02-03T09:58:23.067Z,6.09
2023-02-03T10:01:01.758Z,6.09
2023-02-03T10:03:44.282Z,6.19
2023-02-03T10:06:35.216Z,6.26
2023-02-03T10:09:34.888Z,6.22
2023-02-03T10:13:05.015Z,6.27
2023-02-03T10:16:29.907Z,6.37
2023-02-03T10:19:14.468Z,6.39
2023-02-03T10:22:00.166Z,6.59
2023-02-03T10:25:01.157Z,6.46
2023-02-03T10:27:37.281Z,6.50
2023-02-03T10:30:27.974Z,6.46
2023-02-03T10:33:12.090Z,6.48
2023-02-03T10:36:28.500Z,6.42
2023-02-03T10:39:29.486Z,6.45
2023-02-03T10:42:04.421Z,6.64
2023-02-03T10:44:54.478Z,6.69
2023-02-03T10:47:31.337Z,6.80
2023-02-03T10:50:19.085Z,6.75
2023-02-03T10:52:50.113Z,6.78
2023-02-03T10:55:24.970Z,6.78
2023-02-03T10:57:57.832Z,6.76
2023-02-03T11:00:36.080Z,6.69
2023-02-03T11:03:26.376Z,6.60
2023-02-03T11:06:17.838Z,6.09
2023-02-03T11:08:51.060Z,6.05
2023-02-03T11:11:34.139Z,6.15
2023-02-03T11:14:17.419Z,6.26
2023-02-03T11:16:47.540Z,6.42
2023-02-03T11:19:22.813Z,6.42
2023-02-03T11:21:56.977Z,6.45
2023-02-03T11:24:41.611Z,6.44
2023-02-03T11:27:19.928Z,6.46
2023-02-03T11:30:17.106Z,6.47
2023-02-03T11:32:49.996Z,6.30
2023-02-03T11:35:26.685Z,6.39
2023-02-03T11:38:02.920Z,6.14
2023-02-03T11:40:38.673Z,6.21
2023-02-03T11:43:18.488Z,6.42
2023-02-03T11:45:54.344Z,6.48
2023-02-03T11:49:16.485Z,6.41
2023-02-03T11:52:35.374Z,6.43
2023-02-03T11:55:47.253Z,6.27
2023-02-03T11:59:00.643Z,6.50
2023-02-03T12:02:00.415Z,6.67
2023-02-03T12:05:19.521Z,6.81
2023-02-03T12:08:36.418Z,6.95
2023-02-03T12:11:30.506Z,6.98
2023-02-03T12:14:33.068Z,6.92
2023-02-03T12:17:16.431Z,6.92
2023-02-03T12:20:33.266Z,6.91
2023-02-03T12:23:36.045Z,6.87
2023-02-03T12:26:25.038Z,7.00
2023-02-03T12:29:17.084Z,7.04
2023-02-03T12:32:49.273Z,7.13
2023-02-03T12:35:25.413Z,7.25
2023-02-03T12:38:21.842Z,7.47
2023-02-03T12:41:25.414Z,7.32
2023-02-03T12:44:23.211Z,7.36
2023-02-03T12:47:16.744Z,7.45
2023-02-03T12:49:59.489Z,7.72
2023-02-03T12:52:55.503Z,7.87
2023-02-03T12:56:14.742Z,7.73
2023-02-03T12:58:54.578Z,7.82
2023-02-03T13:01:47.858Z,7.70
2023-02-03T13:04:51.973Z,7.47
2023-02-03T13:07:40.628Z,7.32
2023-02-03T13:10:40.247Z,7.16
2023-02-03T13:13:26.324Z,6.37
2023-02-03T13:16:01.880Z,5.69
2023-02-03T13:18:53.677Z,5.58
2023-02-03T13:21:23.793Z,5.37
2023-02-03T13:23:52.320Z,5.16
2023-02-03T13:27:05.460Z,4.80
2023-02-03T13:30:06.461Z,4.20
2023-02-03T13:34:07.757Z,4.02
2023-02-03T13:37:38.700Z,3.93
2023-02-03T13:40:41.526Z,3.89
2023-02-03T13:43:37.856Z,3.96
2023-02-03T13:46:31.268Z,4.13
2023-02-03T13:49:08.888Z,4.28
2023-02-03T13:51:46.561Z,4.35
2023-02-03T13:54:36.256Z,4.43
2023-02-03T13:57:33.916Z,4.57
2023-02-03T14:00:44.496Z,4.66
2023-02-03T14:03:25.504Z,4.72
2023-02-03T14:06:01.183Z,4.84
2023-02-03T14:08:31.113Z,4.78
2023-02-03T14:11:34.721Z,4.85
2023-02-03T14:14:07.188Z,4.86
2023-02-03T14:16:55.278Z,4.92
2023-02-03T14:19:25.194Z,4.89
2023-02-03T14:22:15.860Z,5.08
2023-02-03T14:24:50.095Z,5.00
2023-02-03T14:27:25.349Z,4.94
2023-02-03T14:30:12.935Z,5.03
2023-02-03T14:33:03.016Z,5.01
2023-02-03T14:35:40.810Z,5.00
2023-02-03T14:38:15.861Z,5.05
2023-02-03T14:41:04.325Z,5.30
2023-02-03T14:44:27.542Z,5.35
2023-02-03T14:47:12.485Z,5.57
2023-02-03T14:50:32.349Z,5.75
2023-02-03T14:54:16.072Z,5.98
2023-02-03T14:57:29.248Z,6.11
2023-02-03T15:00:31.997Z,6.08
2023-02-03T15:03:10.987Z,6.00
2023-02-03T15:05:50.555Z,5.92
2023-02-03T15:08:44.205Z,5.82
2023-02-03T15:11:29.260Z,5.91
2023-02-03T15:14:31.455Z,6.03
2023-02-03T15:17:25.155Z,5.83
2023-02-03T15:19:55.505Z,5.77
2023-02-03T15:22:30.419Z,5.91
2023-02-03T15:25:11.242Z,5.78
2023-02-03T15:27:41.275Z,5.85
2023-02-03T15:30:29.877Z,5.69
2023-02-03T15:33:15.278Z,5.78
2023-02-03T15:35:55.383Z,5.74
2023-02-03T15:38:44.033Z,5.81
2023-02-03T15:41:25.890Z,5.83
2023-02-03T15:44:25.131Z,5.81
2023-02-03T15:46:57.664Z,5.64
2023-02-03T15:49:42.758Z,5.57
2023-02-03T15:52:26.162Z,5.56
2023-02-03T15:55:20.942Z,5.57
2023-02-03T15:57:51.788Z,5.75
2023-02-03T16:00:40.897Z,5.63
2023-02-03T16:03:28.089Z,5.58
2023-02-03T16:06:09.924Z,5.58
2023-02-03T16:08:47.108Z,5.68
2023-02-03T16:11:39.894Z,5.56
2023-02-03T16:14:36.990Z,5.51
2023-02-03T16:17:26.529Z,5.54
2023-02-03T16:20:26.694Z,5.58
2023-02-03T16:23:24.703Z,5.43
2023-02-03T16:26:20.922Z,5.47
2023-02-03T16:29:31.023Z,5.45
2023-02-03T16:32:17.938Z,5.49
2023-02-03T16:35:06.455Z,5.54
2023-02-03T16:38:03.371Z,5.57
2023-02-03T16:40:52.166Z,5.56
2023-02-03T16:43:40.830Z,5.42
2023-02-03T16:46:31.140Z,5.41
2023-02-03T16:49:19.950Z,5.58
2023-02-03T16:51:48.009Z,5.46
2023-02-03T16:54:18.272Z,5.44
2023-02-03T16:56:47.827Z,5.41
2023-02-03T16:59:16.304Z,5.60
2023-02-03T17:01:44.668Z,5.51
2023-02-03T17:04:13.196Z,5.55
2023-02-03T17:06:41.911Z,5.53
2023-02-03T17:09:10.163Z,5.64
2023-02-03T17:11:39.640Z,5.61
2023-02-03T17:14:07.332Z,5.66
2023-02-03T17:16:37.401Z,5.55
2023-02-03T17:19:05.888Z,5.64
2023-02-03T17:21:34.325Z,5.58
2023-02-03T17:24:02.088Z,5.58
2023-02-03T17:26:30.247Z,5.58
2023-02-03T17:29:03.158Z,5.67
2023-02-03T17:31:33.054Z,5.76
2023-02-03T17:34:01.090Z,5.76
2023-02-03T17:36:28.836Z,5.69
2023-02-03T17:55:23.757Z,5.57
2023-02-03T17:57:53.872Z,5.51
2023-02-03T18:00:24.067Z,5.53
2023-02-03T18:02:54.075Z,5.53
2023-02-03T18:05:24.688Z,5.60
2023-02-03T18:07:55.775Z,5.49
2023-02-03T18:10:25.781Z,5.59
2023-02-03T18:12:55.781Z,5.60
2023-02-03T18:15:25.782Z,5.64
2023-02-03T18:17:55.782Z,5.61
2023-02-03T18:20:25.802Z,5.58
2023-02-03T18:22:55.799Z,5.54
2023-02-03T18:25:25.885Z,5.62
2023-02-03T18:27:55.982Z,5.60
2023-02-03T18:30:24.322Z,5.67
2023-02-03T18:32:53.150Z,5.64
2023-02-03T18:35:21.381Z,5.56
2023-02-03T18:37:51.725Z,5.69
2023-02-03T18:40:21.153Z,5.75
2023-02-03T18:42:49.711Z,5.75
2023-02-03T18:45:18.133Z,5.64
2023-02-03T18:47:46.437Z,5.77
2023-02-03T18:50:15.247Z,5.68
2023-02-03T18:52:43.380Z,5.56
2023-02-03T18:55:12.885Z,5.68
2023-02-03T18:57:40.318Z,5.72
2023-02-03T19:00:09.790Z,5.68
2023-02-03T19:02:37.070Z,5.58
2023-02-03T19:05:06.648Z,5.59
2023-02-03T19:07:34.146Z,5.66
2023-02-03T19:10:02.387Z,5.60
2023-02-03T19:12:30.812Z,5.56
2023-02-03T19:14:59.224Z,5.45
2023-02-03T19:17:27.762Z,5.49
2023-02-03T19:19:56.150Z,5.57
2023-02-03T19:22:24.527Z,5.57
2023-02-03T19:24:52.939Z,5.50
2023-02-03T19:27:22.760Z,5.43
2023-02-03T19:29:52.805Z,5.47
2023-02-03T19:32:22.866Z,5.38
2023-02-03T19:34:52.880Z,5.36
2023-02-03T19:37:22.888Z,5.40
2023-02-03T19:39:52.931Z,5.32
2023-02-03T19:42:23.230Z,5.37
2023-02-03T19:44:53.310Z,5.40
2023-02-03T19:47:23.386Z,5.46
2023-02-03T19:49:53.436Z,5.29
2023-02-03T19:52:23.842Z,5.33
2023-02-03T19:54:55.491Z,5.13
2023-02-03T19:57:25.663Z,5.14
2023-02-03T19:59:56.726Z,5.10
2023-02-03T20:02:27.024Z,4.82
2023-02-03T20:04:57.709Z,4.92
2023-02-03T20:07:28.647Z,4.94
2023-02-03T20:09:58.982Z,5.05
2023-02-03T20:12:30.283Z,4.82
2023-02-03T20:15:03.204Z,4.78
2023-02-03T20:17:33.248Z,4.92
2023-02-03T20:20:04.697Z,4.97
2023-02-03T20:22:34.671Z,4.93
2023-02-03T20:25:06.226Z,4.92
2023-02-03T20:27:36.327Z,4.96
2023-02-03T20:30:07.309Z,4.89
2023-02-03T20:32:36.798Z,4.78
2023-02-03T20:35:07.927Z,4.80
2023-02-03T20:37:37.932Z,4.80
2023-02-03T20:40:22.508Z,4.67
2023-02-03T20:42:53.207Z,4.67
2023-02-03T20:45:25.285Z,4.75
2023-02-03T20:47:54.638Z,4.60
2023-02-03T20:50:37.314Z,4.49
2023-02-03T20:53:24.327Z,4.66
2023-02-03T20:56:01.766Z,4.57
2023-02-03T20:58:37.210Z,4.56
2023-02-03T21:01:19.941Z,4.49
2023-02-03T21:04:08.530Z,4.47
2023-02-03T21:06:38.577Z,4.49
2023-02-03T21:09:19.322Z,4.49
2023-02-03T21:11:52.421Z,4.49
2023-02-03T21:14:43.813Z,4.41
2023-02-03T21:17:29.462Z,4.47
2023-02-03T21:19:59.934Z,4.47
2023-02-03T21:22:30.393Z,4.39
2023-02-03T21:25:03.527Z,4.35
2023-02-03T21:27:35.196Z,4.32
2023-02-03T21:30:33.057Z,4.26
2023-02-03T21:33:44.143Z,4.24
2023-02-03T21:36:26.377Z,4.10
2023-02-03T21:39:00.631Z,3.64
2023-02-03T21:41:34.129Z,3.44
2023-02-03T21:44:38.268Z,3.29
2023-02-03T21:47:18.803Z,3.11
2023-02-03T21:49:48.782Z,2.99
2023-02-03T21:52:18.754Z,2.92
2023-02-03T21:54:48.795Z,2.92
2023-02-03T21:57:21.164Z,2.69
2023-02-03T21:59:51.134Z,2.64
2023-02-03T22:02:59.736Z,2.43
2023-02-03T22:05:29.807Z,2.47
2023-02-03T22:08:00.004Z,2.50
2023-02-03T22:10:30.301Z,2.49
2023-02-03T22:13:04.126Z,2.43
2023-02-03T22:15:34.101Z,2.38
2023-02-03T22:18:07.478Z,2.41
2023-02-03T22:20:36.209Z,2.31
2023-02-03T22:23:04.178Z,2.24
2023-02-03T22:25:33.657Z,2.28
2023-02-03T22:28:01.030Z,2.22
2023-02-03T22:30:35.348Z,2.11
2023-02-03T22:33:07.572Z,2.01
2023-02-03T22:35:37.641Z,2.07
2023-02-03T22:38:07.661Z,1.99
2023-02-03T22:40:37.765Z,1.98
2023-02-03T22:43:07.818Z,1.95
2023-02-03T22:45:37.807Z,1.91
2023-02-03T22:48:07.927Z,1.92
2023-02-03T22:50:38.439Z,2.06
2023-02-03T22:53:09.373Z,2.04
2023-02-03T22:55:42.469Z,1.92
2023-02-03T22:58:13.001Z,1.81
2023-02-03T23:00:43.027Z,1.68
2023-02-03T23:03:13.153Z,1.85
2023-02-03T23:05:45.399Z,1.86
2023-02-03T23:08:15.537Z,1.88
2023-02-03T23:10:45.644Z,1.97
2023-02-03T23:13:15.736Z,2.00
2023-02-03T23:15:45.966Z,1.86
2023-02-03T23:18:16.648Z,1.88
2023-02-03T23:20:46.721Z,1.97
2023-02-03T23:23:16.737Z,1.99
2023-02-03T23:25:46.765Z,1.99
2023-02-03T23:28:16.876Z,1.91
2023-02-03T23:30:49.276Z,1.93
2023-02-03T23:33:19.366Z,1.82
2023-02-03T23:35:50.752Z,1.76
2023-02-03T23:38:18.686Z,1.76
2023-02-03T23:40:47.853Z,1.70
2023-02-03T23:43:17.777Z,1.61
2023-02-03T23:45:46.063Z,1.67
2023-02-03T23:48:14.523Z,1.66
2023-02-03T23:50:42.851Z,1.63
2023-02-03T23:53:11.269Z,1.65
2023-02-03T23:55:39.736Z,1.71
2023-02-03T23:58:08.123Z,1.83
